Sumpter, Arkansas
Current Conditions -  °F | °C
As of 1:53 AM on Saturday 25 Oct 2014 (Local Time) from KLLQ Reporting Station
Clear Clear  
Wind Chill: 56°   Ceiling: Unl
Heat Index: 56°   Visibility: 9mi
Dew Point: 53°   Wind: 3mph
Humidity: 90%   Direction: 290°WNW
Pressure: 30.12"   Gusts: NA
Location:  33.37°N, 92.1129°W
Report Text: KLLQ 250653Z AUTO 29003KT 9SM CLR 13/12 A3012 RMK AO2 SLP196 T01330117
Loading
Personal Weather Stations






























Interactive Weather Map
Tropical Storm Tracking
New forecast layout! Learn more

10-Day Weather Forecast

Advertisements
Track Severe Weather on mobile